createdAt,value
2022-10-20T03:16:44.855Z,98960.00
2022-10-20T03:19:57.012Z,98948.84
2022-10-20T03:23:07.161Z,98953.09
2022-10-20T03:26:17.454Z,98944.59
2022-10-20T03:29:27.624Z,98938.72
2022-10-20T03:32:38.184Z,98943.88
2022-10-20T03:35:50.282Z,98942.09
2022-10-20T03:39:00.703Z,98939.16
2022-10-20T03:42:10.986Z,98936.47
2022-10-20T03:45:21.130Z,98938.00
2022-10-20T03:48:32.807Z,98936.22
2022-10-20T03:51:44.384Z,98946.25
2022-10-20T03:54:55.032Z,98938.19
2022-10-20T03:58:05.579Z,98945.75
2022-10-20T04:01:17.675Z,98944.88
2022-10-20T04:04:28.324Z,98943.97
2022-10-20T04:07:39.832Z,98940.38
2022-10-20T04:10:49.992Z,98933.44
2022-10-20T04:14:01.407Z,98927.66
2022-10-20T04:17:11.865Z,98918.56
2022-10-20T04:20:24.793Z,98906.75
2022-10-20T04:23:36.634Z,98910.06
2022-10-20T04:26:47.124Z,98909.31
2022-10-20T04:29:57.303Z,98896.22
2022-10-20T04:33:07.566Z,98888.44
2022-10-20T04:36:17.842Z,98892.31
2022-10-20T04:39:30.303Z,98890.38
2022-10-20T04:42:41.822Z,98885.91
2022-10-20T04:45:54.012Z,98883.22
2022-10-20T04:49:04.395Z,98872.72
2022-10-20T04:52:15.433Z,98873.84
2022-10-20T04:55:27.053Z,98865.50
2022-10-20T04:58:37.649Z,98864.72
2022-10-20T05:27:46.869Z,98849.69
2022-10-20T05:31:23.893Z,98843.78
2022-10-20T05:34:36.992Z,98837.00
2022-10-20T05:37:47.202Z,98836.09
2022-10-20T05:41:05.991Z,98836.22
2022-10-20T05:44:17.595Z,98835.31
2022-10-20T05:47:27.805Z,98827.63
2022-10-20T05:50:38.742Z,98818.91
2022-10-20T05:53:49.239Z,98815.56
2022-10-20T05:56:59.579Z,98834.81
2022-10-20T06:00:13.174Z,98855.31
2022-10-20T06:03:27.503Z,98849.81
2022-10-20T06:06:39.989Z,98860.97
2022-10-20T06:09:50.809Z,98867.69
2022-10-20T06:13:02.190Z,98862.78
2022-10-20T06:16:15.569Z,98880.31
2022-10-20T06:19:27.061Z,98874.31
2022-10-20T06:22:38.675Z,98887.25
2022-10-20T06:25:50.385Z,98879.16
2022-10-20T06:29:04.576Z,98886.31
2022-10-20T06:32:18.428Z,98883.47
2022-10-20T06:35:32.457Z,98898.19
2022-10-20T06:38:45.047Z,98888.59
2022-10-20T06:41:56.775Z,98888.88
2022-10-20T06:45:12.294Z,98874.75
2022-10-20T06:48:26.520Z,98854.06
2022-10-20T06:51:38.225Z,98854.31
2022-10-20T06:54:49.242Z,98854.66
2022-10-20T06:57:59.915Z,98845.41
2022-10-20T07:01:14.950Z,98846.63
2022-10-20T07:04:27.506Z,98848.25
2022-10-20T07:07:38.507Z,98845.53
2022-10-20T07:10:50.499Z,98846.75
2022-10-20T07:14:02.377Z,98855.22
2022-10-20T07:17:13.282Z,98856.94
2022-10-20T07:20:25.490Z,98860.69
2022-10-20T07:23:37.359Z,98856.28
2022-10-20T07:26:47.861Z,98866.34
2022-10-20T07:29:58.558Z,98861.31
2022-10-20T07:33:10.670Z,98850.81
2022-10-20T07:36:25.176Z,98854.19
2022-10-20T07:39:37.396Z,98855.41
2022-10-20T07:42:49.302Z,98868.16
2022-10-20T07:46:00.179Z,98856.78
2022-10-20T07:49:39.270Z,98857.78
2022-10-20T07:52:43.011Z,98844.81
2022-10-20T07:55:53.843Z,98841.22
2022-10-20T07:59:05.818Z,98853.19
2022-10-20T08:02:16.587Z,98842.22
2022-10-20T08:05:27.666Z,98847.81
2022-10-20T08:08:39.484Z,98852.28
2022-10-20T08:11:52.918Z,98844.50
2022-10-20T08:15:08.020Z,98840.28
2022-10-20T08:18:19.989Z,98815.97
2022-10-20T08:21:31.031Z,98833.50
2022-10-20T08:24:43.678Z,98826.13
2022-10-20T08:27:55.096Z,98825.69
2022-10-20T08:31:08.671Z,98833.72
2022-10-20T08:34:19.787Z,98837.50
2022-10-20T08:37:32.423Z,98838.91
2022-10-20T08:40:45.160Z,98829.88
2022-10-20T08:43:57.937Z,98825.19
2022-10-20T08:47:21.349Z,98814.34
2022-10-20T08:50:32.760Z,98817.63
2022-10-20T08:53:43.813Z,98813.72
2022-10-20T08:56:56.351Z,98817.34
2022-10-20T09:00:25.097Z,98826.16
2022-10-20T09:03:36.937Z,98820.09
2022-10-20T09:06:51.678Z,98825.16
2022-10-20T09:10:08.305Z,98824.88
2022-10-20T09:13:26.733Z,98824.38
2022-10-20T09:16:58.684Z,98814.69
2022-10-20T09:20:17.070Z,98815.97
2022-10-20T09:23:41.661Z,98815.25
2022-10-20T09:26:58.588Z,98812.91
2022-10-20T09:30:20.077Z,98816.78
2022-10-20T09:33:31.795Z,98806.22
2022-10-20T09:36:42.613Z,98798.91
2022-10-20T09:39:56.001Z,98811.72
2022-10-20T09:43:11.320Z,98810.22
2022-10-20T09:46:25.862Z,98804.31
2022-10-20T09:49:37.276Z,98808.97
2022-10-20T09:52:49.269Z,98808.97
2022-10-20T09:55:59.408Z,98799.72
2022-10-20T09:59:22.307Z,98801.63
2022-10-20T10:02:34.205Z,98794.00
2022-10-20T10:05:44.003Z,98798.97
2022-10-20T10:08:53.654Z,98785.97
2022-10-20T10:12:06.790Z,98775.19
2022-10-20T10:15:27.989Z,98782.31
2022-10-20T10:18:39.883Z,98777.13
2022-10-20T10:21:53.492Z,98769.63
2022-10-20T10:25:04.782Z,98763.72
2022-10-20T10:28:29.347Z,98758.59
2022-10-20T10:31:50.968Z,98746.19
2022-10-20T10:35:13.755Z,98732.72
2022-10-20T10:38:23.399Z,98731.06
2022-10-20T10:41:50.389Z,98742.50
2022-10-20T10:45:09.189Z,98748.81
2022-10-20T10:48:45.657Z,98743.44
2022-10-20T10:52:04.643Z,98752.75
2022-10-20T10:55:48.216Z,98756.50
2022-10-20T10:58:58.359Z,98752.94
2022-10-20T11:02:34.698Z,98752.22
2022-10-20T11:05:57.540Z,98756.25
2022-10-20T11:09:18.573Z,98744.56
2022-10-20T11:12:46.699Z,98749.25
2022-10-20T11:16:07.336Z,98744.06
2022-10-20T11:19:32.478Z,98740.34
2022-10-20T11:22:56.610Z,98753.56
2022-10-20T11:26:18.035Z,98747.16
2022-10-20T11:29:33.591Z,98753.94
2022-10-20T11:32:48.548Z,98758.03
2022-10-20T11:36:03.602Z,98752.06
2022-10-20T11:39:22.748Z,98742.88
2022-10-20T11:42:42.961Z,98737.88
2022-10-20T11:45:56.729Z,98733.75
2022-10-20T11:49:07.511Z,98733.03
2022-10-20T11:52:49.710Z,98713.59
2022-10-20T11:56:18.536Z,98724.94
2022-10-20T11:59:50.476Z,98723.16
2022-10-20T12:03:21.465Z,98730.00
2022-10-20T12:06:49.023Z,98745.41
2022-10-20T12:10:12.913Z,98744.75
2022-10-20T12:13:33.121Z,98747.97
2022-10-20T12:17:05.285Z,98743.53
2022-10-20T12:20:38.573Z,98746.03
2022-10-20T12:24:02.841Z,98735.69
2022-10-20T12:27:19.506Z,98727.28
2022-10-20T12:30:42.074Z,98709.16
2022-10-20T12:34:04.259Z,98706.56
2022-10-20T12:37:19.007Z,98695.59
2022-10-20T12:40:32.479Z,98687.00
2022-10-20T12:43:50.228Z,98682.81
2022-10-20T12:47:06.057Z,98695.84
2022-10-20T12:50:31.710Z,98684.06
2022-10-20T12:53:41.492Z,98665.16
2022-10-20T12:56:53.219Z,98659.81
2022-10-20T13:00:05.413Z,98667.41
2022-10-20T13:03:37.997Z,98666.63
2022-10-20T13:06:48.952Z,98672.50
2022-10-20T13:10:01.663Z,98669.50
2022-10-20T13:13:42.001Z,98660.59
2022-10-20T13:17:02.060Z,98658.50
2022-10-20T13:20:25.112Z,98655.19
2022-10-20T13:23:40.457Z,98643.31
2022-10-20T13:26:54.265Z,98648.50
2022-10-20T13:30:08.720Z,98652.59
2022-10-20T13:33:44.449Z,98662.06
2022-10-20T13:37:11.778Z,98664.66
2022-10-20T13:40:31.084Z,98661.88
2022-10-20T13:43:56.786Z,98660.25
2022-10-20T13:47:26.056Z,98662.94
2022-10-20T13:50:37.969Z,98669.72
2022-10-20T13:53:51.930Z,98668.69
2022-10-20T13:57:04.256Z,98674.50
2022-10-20T14:00:20.209Z,98671.91
2022-10-20T14:03:31.109Z,98684.84
2022-10-20T14:06:40.660Z,98686.53
2022-10-20T14:09:58.214Z,98689.03
2022-10-20T14:13:11.959Z,98678.69
2022-10-20T14:16:27.627Z,98682.97
2022-10-20T14:19:37.261Z,98677.69
2022-10-20T14:22:48.050Z,98684.47
2022-10-20T14:26:00.636Z,98678.31
2022-10-20T14:29:13.761Z,98673.16
2022-10-20T14:32:25.788Z,98662.81
2022-10-20T14:35:42.191Z,98675.03
2022-10-20T14:38:53.737Z,98671.53
2022-10-20T14:42:08.890Z,98660.16
2022-10-20T14:45:21.883Z,98657.47
2022-10-20T14:48:36.859Z,98651.97
2022-10-20T14:51:56.172Z,98643.44
2022-10-20T14:55:28.084Z,98640.22
2022-10-20T14:58:55.198Z,98644.84
2022-10-20T15:02:12.381Z,98653.75
2022-10-20T15:05:24.460Z,98646.97
2022-10-20T15:08:34.192Z,98650.84
2022-10-20T15:11:44.008Z,98645.84
2022-10-20T15:15:03.825Z,98638.28
2022-10-20T15:18:18.232Z,98652.00
2022-10-20T15:21:31.874Z,98638.91
2022-10-20T15:24:42.657Z,98645.69
2022-10-20T15:27:53.218Z,98639.63
2022-10-20T15:31:06.458Z,98629.19
2022-10-20T15:34:18.021Z,98618.22
2022-10-20T15:37:28.716Z,98606.25
2022-10-20T15:40:38.976Z,98613.03
2022-10-20T15:43:51.778Z,98614.75
2022-10-20T15:47:01.960Z,98611.28
2022-10-20T15:50:14.388Z,98604.16
2022-10-20T15:53:24.615Z,98612.38
2022-10-20T15:56:35.680Z,98607.22
2022-10-20T15:59:46.255Z,98613.25
2022-10-20T16:02:57.028Z,98608.97
2022-10-20T16:06:11.301Z,98623.44
2022-10-20T16:09:21.748Z,98621.50
2022-10-20T16:12:32.208Z,98608.47
2022-10-20T16:15:42.497Z,98601.19
2022-10-20T16:18:53.063Z,98599.22
2022-10-20T16:22:04.749Z,98596.56
2022-10-20T16:25:15.150Z,98606.72
2022-10-20T16:28:25.954Z,98598.91
2022-10-20T16:31:37.531Z,98598.72
2022-10-20T16:34:48.083Z,98602.28
2022-10-20T16:37:59.583Z,98602.28
2022-10-20T16:41:12.275Z,98607.44
2022-10-20T16:44:22.534Z,98614.94
2022-10-20T16:47:35.305Z,98608.88
2022-10-20T16:50:48.365Z,98602.59
2022-10-20T16:54:03.327Z,98599.19
2022-10-20T16:57:14.200Z,98594.00
2022-10-20T17:00:25.857Z,98588.84
2022-10-20T17:03:36.714Z,98570.59
2022-10-20T17:06:46.916Z,98566.88
2022-10-20T17:10:00.895Z,98567.75
2022-10-20T17:13:11.432Z,98573.81
2022-10-20T17:16:28.594Z,98584.22
2022-10-20T17:19:44.483Z,98587.53
2022-10-20T17:22:58.591Z,98590.03
2022-10-20T17:26:12.432Z,98580.38
2022-10-20T17:29:26.422Z,98559.72
2022-10-20T17:32:44.061Z,98510.47
2022-10-20T17:35:55.162Z,98480.72
2022-10-20T17:39:09.593Z,98472.47
2022-10-20T17:42:21.115Z,98524.13
2022-10-20T17:45:36.279Z,98592.97
2022-10-20T17:48:48.775Z,98587.91
2022-10-20T17:51:59.150Z,98598.41
2022-10-20T17:55:09.835Z,98597.50
2022-10-20T17:58:21.332Z,98592.34
2022-10-20T18:01:34.328Z,98602.03
2022-10-20T18:04:47.691Z,98601.06
2022-10-20T18:07:58.413Z,98580.78
2022-10-20T18:11:13.614Z,98587.69
2022-10-20T18:14:27.607Z,98577.56
2022-10-20T18:17:37.792Z,98579.34
2022-10-20T18:20:55.639Z,98585.38
2022-10-20T18:24:08.518Z,98572.41
2022-10-20T18:27:20.019Z,98555.81
2022-10-20T18:30:31.935Z,98556.53
2022-10-20T18:33:44.890Z,98559.22
2022-10-20T18:36:57.825Z,98571.88
2022-10-20T18:40:09.987Z,98558.44
2022-10-20T18:43:28.123Z,98554.25
2022-10-20T18:46:47.946Z,98542.69
2022-10-20T18:49:58.106Z,98538.56
2022-10-20T18:53:09.075Z,98544.44
2022-10-20T18:56:20.856Z,98537.56
2022-10-20T18:59:36.411Z,98548.88
2022-10-20T19:02:53.327Z,98537.69
2022-10-20T19:06:08.666Z,98529.84
2022-10-20T19:09:21.383Z,98520.06
2022-10-20T19:12:33.979Z,98514.91
2022-10-20T19:15:47.037Z,98513.38
2022-10-20T19:19:02.767Z,98504.00
2022-10-20T19:22:12.951Z,98495.75
2022-10-20T19:25:23.215Z,98496.97
2022-10-20T19:28:35.310Z,98494.56
2022-10-20T19:31:47.703Z,98496.53
2022-10-20T19:35:01.771Z,98494.09
2022-10-20T19:38:12.225Z,98505.41
2022-10-20T19:41:23.801Z,98489.09
2022-10-20T19:44:38.096Z,98490.94
2022-10-20T19:47:50.398Z,98479.75
2022-10-20T19:51:09.832Z,98479.75
